createdAt,value
2018-09-13T00:00:03.002Z,83.19
2018-09-13T00:02:31.861Z,83.09
2018-09-13T00:05:00.743Z,83.11
2018-09-13T00:07:29.567Z,83.47
2018-09-13T00:09:58.409Z,83.36
2018-09-13T00:12:27.294Z,84.00
2018-09-13T00:14:56.130Z,84.03
2018-09-13T00:17:24.956Z,83.92
2018-09-13T00:19:53.917Z,83.83
2018-09-13T00:22:23.962Z,84.31
2018-09-13T00:24:52.773Z,84.00
2018-09-13T00:27:22.878Z,83.81
2018-09-13T00:29:51.886Z,83.92
2018-09-13T00:32:20.703Z,83.70
2018-09-13T00:34:49.566Z,83.85
2018-09-13T00:37:18.418Z,83.93
2018-09-13T00:39:47.266Z,84.06
2018-09-13T00:42:16.098Z,83.91
2018-09-13T00:44:44.908Z,84.21
2018-09-13T00:47:14.355Z,83.83
2018-09-13T00:49:43.898Z,84.08
2018-09-13T00:52:12.785Z,83.81
2018-09-13T00:54:41.613Z,83.35
2018-09-13T00:57:10.486Z,83.94
2018-09-13T00:59:39.303Z,83.58
2018-09-13T01:02:08.174Z,83.21
2018-09-13T01:04:37.335Z,83.34
2018-09-13T01:07:06.262Z,83.55
2018-09-13T01:09:35.106Z,82.73
2018-09-13T01:12:03.938Z,82.76
2018-09-13T01:14:32.791Z,82.67
2018-09-13T01:17:01.629Z,82.46
2018-09-13T01:19:30.451Z,82.89
2018-09-13T01:21:59.264Z,82.50
2018-09-13T01:24:28.100Z,82.74
2018-09-13T01:26:56.953Z,82.84
2018-09-13T01:29:25.790Z,82.65
2018-09-13T01:31:54.669Z,82.81
2018-09-13T01:34:23.493Z,82.00
2018-09-13T01:36:52.281Z,81.94
2018-09-13T01:39:21.202Z,82.14
2018-09-13T01:41:50.043Z,81.64
2018-09-13T01:44:18.880Z,81.76
2018-09-13T01:46:47.741Z,81.84
2018-09-13T01:49:16.573Z,81.73
2018-09-13T01:51:45.496Z,81.84
2018-09-13T01:54:14.347Z,81.92
2018-09-13T01:56:43.171Z,81.93
2018-09-13T01:59:12.033Z,81.95
2018-09-13T02:01:40.885Z,81.92
2018-09-13T02:04:09.691Z,82.45
2018-09-13T02:06:38.566Z,82.17
2018-09-13T02:09:11.197Z,82.09
2018-09-13T02:11:40.037Z,82.36
2018-09-13T02:14:08.858Z,82.22
2018-09-13T02:16:37.714Z,81.87
2018-09-13T02:19:06.841Z,81.75
2018-09-13T02:21:35.633Z,82.18
2018-09-13T02:24:05.863Z,82.72
2018-09-13T02:26:34.704Z,82.43
2018-09-13T02:29:03.665Z,82.69
2018-09-13T02:31:32.530Z,82.08
2018-09-13T02:34:01.350Z,82.31
2018-09-13T02:36:32.598Z,82.49
2018-09-13T02:39:01.483Z,82.42
2018-09-13T02:41:30.296Z,82.28
2018-09-13T02:43:59.104Z,82.86
2018-09-13T02:46:28.067Z,83.11
2018-09-13T02:48:56.913Z,83.00
2018-09-13T02:51:25.730Z,82.80
2018-09-13T02:53:54.585Z,82.89
2018-09-13T02:56:23.401Z,82.23
2018-09-13T02:58:52.243Z,82.64
2018-09-13T03:01:21.097Z,82.89
2018-09-13T03:03:49.927Z,83.15
2018-09-13T03:06:18.754Z,83.31
2018-09-13T03:08:48.534Z,82.84
2018-09-13T03:11:17.382Z,82.88
2018-09-13T03:13:46.206Z,82.40
2018-09-13T03:16:15.318Z,82.92
2018-09-13T03:18:44.165Z,82.52
2018-09-13T03:21:13.028Z,82.43
2018-09-13T03:23:43.181Z,82.95
2018-09-13T03:26:12.029Z,82.72
2018-09-13T03:28:40.939Z,82.72
2018-09-13T03:31:11.066Z,83.18
2018-09-13T03:33:39.981Z,83.04
2018-09-13T03:36:08.837Z,83.09
2018-09-13T03:38:37.714Z,83.20
2018-09-13T03:41:06.564Z,82.56
2018-09-13T03:43:35.502Z,83.00
2018-09-13T03:46:05.678Z,82.93
2018-09-13T03:48:34.530Z,83.14
2018-09-13T03:51:03.641Z,83.24
2018-09-13T03:53:33.789Z,83.13
2018-09-13T03:56:02.717Z,83.09
2018-09-13T03:58:31.532Z,83.21
2018-09-13T04:01:01.906Z,82.83
2018-09-13T04:03:30.904Z,82.76
2018-09-13T04:05:59.725Z,82.74
2018-09-13T04:08:29.268Z,82.38
2018-09-13T04:10:58.131Z,82.92
2018-09-13T04:13:27.050Z,82.37
2018-09-13T04:15:55.904Z,82.62
2018-09-13T04:18:24.735Z,82.44
2018-09-13T04:20:53.577Z,81.83
2018-09-13T04:23:22.616Z,82.43
2018-09-13T04:25:51.421Z,82.40
2018-09-13T04:28:21.487Z,81.91
2018-09-13T04:30:50.602Z,82.54
2018-09-13T04:33:19.561Z,82.30
2018-09-13T04:35:48.681Z,81.92
2018-09-13T04:38:17.454Z,82.24
2018-09-13T04:40:46.291Z,81.80
2018-09-13T04:43:15.311Z,81.40
2018-09-13T04:45:44.255Z,81.06
2018-09-13T04:48:13.203Z,80.87
2018-09-13T04:50:42.036Z,80.61
2018-09-13T04:53:10.868Z,80.56
2018-09-13T04:55:41.029Z,80.24
2018-09-13T04:58:10.014Z,80.42
2018-09-13T05:00:38.838Z,79.46
2018-09-13T05:03:07.719Z,79.51
2018-09-13T05:05:36.562Z,79.00
2018-09-13T05:08:05.429Z,78.16
2018-09-13T05:10:34.289Z,78.09
2018-09-13T05:13:03.132Z,77.15
2018-09-13T05:15:31.970Z,77.31
2018-09-13T05:18:00.838Z,77.31
2018-09-13T05:20:29.685Z,76.62
2018-09-13T05:22:58.515Z,76.20
2018-09-13T05:25:27.394Z,76.02
2018-09-13T05:27:56.194Z,75.68
2018-09-13T05:30:25.051Z,75.89
2018-09-13T05:32:54.276Z,75.72
2018-09-13T05:35:23.703Z,75.17
2018-09-13T05:37:52.526Z,75.28
2018-09-13T05:40:21.457Z,75.29
2018-09-13T05:42:50.414Z,75.38
2018-09-13T05:45:19.235Z,75.14
2018-09-13T05:47:48.048Z,74.80
2018-09-13T05:50:16.898Z,74.64
2018-09-13T05:52:45.721Z,74.55
2018-09-13T05:55:14.538Z,74.59
2018-09-13T05:57:43.454Z,74.41
2018-09-13T06:00:12.616Z,75.13
2018-09-13T06:02:41.439Z,74.70
2018-09-13T06:05:11.691Z,74.26
2018-09-13T06:07:40.530Z,73.43
2018-09-13T06:10:09.519Z,72.66
2018-09-13T06:12:38.331Z,72.56
2018-09-13T06:15:07.210Z,72.26
2018-09-13T06:17:36.095Z,72.26
2018-09-13T06:20:04.977Z,70.19
2018-09-13T06:22:33.923Z,71.16
2018-09-13T06:25:02.798Z,71.49
2018-09-13T06:27:31.634Z,70.99
2018-09-13T06:30:00.503Z,70.25
2018-09-13T06:32:29.346Z,69.99
2018-09-13T06:34:59.200Z,70.08
2018-09-13T06:37:28.464Z,69.10
2018-09-13T06:39:57.281Z,69.20
2018-09-13T06:42:26.147Z,68.53
2018-09-13T06:44:55.123Z,69.53
2018-09-13T06:47:24.005Z,69.62
2018-09-13T06:49:52.938Z,69.11
2018-09-13T06:52:21.791Z,68.18
2018-09-13T06:54:50.683Z,68.18
2018-09-13T06:57:20.886Z,67.60
2018-09-13T06:59:49.763Z,68.45
2018-09-13T07:02:18.641Z,67.41
2018-09-13T07:04:48.791Z,68.14
2018-09-13T07:07:17.773Z,68.14
2018-09-13T07:09:46.587Z,68.33
2018-09-13T07:12:15.496Z,67.89
2018-09-13T07:14:44.310Z,66.51
2018-09-13T07:17:13.109Z,67.44
2018-09-13T07:19:43.205Z,66.56
2018-09-13T07:22:12.129Z,67.40
2018-09-13T07:24:41.343Z,66.75
2018-09-13T07:27:10.247Z,67.35
2018-09-13T07:29:39.276Z,65.83
2018-09-13T07:32:08.251Z,64.38
2018-09-13T07:34:37.328Z,65.43
2018-09-13T07:37:06.334Z,65.12
2018-09-13T07:39:35.378Z,64.79
2018-09-13T07:42:05.698Z,63.01
2018-09-13T07:44:34.740Z,62.63
2018-09-13T07:47:03.762Z,62.04
2018-09-13T07:49:33.021Z,61.72
2018-09-13T07:52:01.860Z,60.21
2018-09-13T07:54:30.829Z,59.64
2018-09-13T07:56:59.738Z,59.97
2018-09-13T07:59:29.006Z,60.38
2018-09-13T08:01:58.474Z,59.86
2018-09-13T08:04:27.413Z,60.41
2018-09-13T08:06:56.345Z,62.05
2018-09-13T08:09:25.249Z,62.64
2018-09-13T08:11:54.217Z,63.33
2018-09-13T08:14:23.086Z,62.83
2018-09-13T08:16:52.018Z,62.65
2018-09-13T08:19:21.257Z,63.75
2018-09-13T08:24:17.888Z,63.03
2018-09-13T08:26:48.326Z,63.21
2018-09-13T08:29:17.247Z,62.80
2018-09-13T08:31:46.172Z,63.88
2018-09-13T08:34:16.337Z,62.90
2018-09-13T08:36:45.316Z,62.67
2018-09-13T08:39:14.189Z,62.55
2018-09-13T08:41:44.486Z,62.61
2018-09-13T08:44:13.421Z,62.86
2018-09-13T08:46:43.526Z,62.41
2018-09-13T08:49:13.680Z,62.98
2018-09-13T08:51:42.640Z,62.29
2018-09-13T08:54:11.471Z,61.77
2018-09-13T08:56:41.782Z,62.26
2018-09-13T08:59:12.025Z,62.16
2018-09-13T09:01:40.940Z,62.23
2018-09-13T09:04:09.827Z,61.56
2018-09-13T09:06:38.782Z,61.52
2018-09-13T09:09:10.837Z,60.51
2018-09-13T09:11:39.905Z,61.70
2018-09-13T09:14:08.817Z,62.27
2018-09-13T09:16:37.698Z,62.22
2018-09-13T09:19:07.871Z,62.08
2018-09-13T09:21:36.983Z,62.00
2018-09-13T09:24:05.926Z,61.90
2018-09-13T09:26:34.901Z,60.90
2018-09-13T09:29:03.795Z,60.50
2018-09-13T09:31:32.787Z,59.72
2018-09-13T09:34:01.733Z,58.28
2018-09-13T09:36:30.650Z,58.64
2018-09-13T09:38:59.571Z,57.98
2018-09-13T09:41:28.463Z,57.23
2018-09-13T09:43:57.400Z,57.97
2018-09-13T09:46:26.232Z,56.61
2018-09-13T09:48:56.433Z,55.81
2018-09-13T09:51:25.693Z,56.50
2018-09-13T09:53:54.574Z,57.01
2018-09-13T09:56:23.510Z,56.06
2018-09-13T09:58:52.682Z,56.24
2018-09-13T10:01:26.673Z,56.10
2018-09-13T10:03:56.683Z,56.96
2018-09-13T10:06:25.571Z,58.55
2018-09-13T10:08:54.568Z,57.10
2018-09-13T10:11:23.505Z,58.24
2018-09-13T10:13:52.469Z,59.52
2018-09-13T10:16:26.561Z,57.82
2018-09-13T10:19:00.492Z,57.70
2018-09-13T10:21:34.477Z,57.48
2018-09-13T10:24:08.402Z,59.94
2018-09-13T10:26:42.597Z,60.58
2018-09-13T10:29:16.541Z,60.61
2018-09-13T10:31:50.534Z,59.70
2018-09-13T10:34:24.479Z,59.75
2018-09-13T10:36:58.337Z,59.19
2018-09-13T10:39:33.550Z,59.08
2018-09-13T10:42:07.341Z,59.08
2018-09-13T10:44:41.218Z,59.47
2018-09-13T10:47:15.121Z,59.54
2018-09-13T10:49:50.321Z,59.67
2018-09-13T10:52:22.546Z,60.93
2018-09-13T10:54:51.551Z,60.18
2018-09-13T10:57:25.564Z,60.36
2018-09-13T10:59:55.749Z,59.56
2018-09-13T11:02:24.662Z,60.24
2018-09-13T11:04:53.701Z,59.76
2018-09-13T11:07:22.665Z,59.74
2018-09-13T11:09:51.904Z,59.28
2018-09-13T11:12:26.587Z,58.98
2018-09-13T11:15:18.622Z,58.00
2018-09-13T11:17:47.582Z,58.29
2018-09-13T11:20:16.540Z,58.20
2018-09-13T11:22:49.818Z,58.45
2018-09-13T11:25:18.722Z,58.45
2018-09-13T11:27:47.714Z,58.19
2018-09-13T11:30:16.699Z,58.15
2018-09-13T11:32:46.915Z,58.17
2018-09-13T11:35:16.192Z,57.87
2018-09-13T11:37:44.705Z,57.82
2018-09-13T11:40:14.127Z,57.86
2018-09-13T11:42:43.487Z,58.31
2018-09-13T11:45:12.574Z,58.22
2018-09-13T11:47:43.382Z,59.26
2018-09-13T11:50:12.451Z,60.64
2018-09-13T11:52:41.357Z,60.52
2018-09-13T11:55:11.466Z,60.66
2018-09-13T11:57:40.361Z,60.38
2018-09-13T12:00:09.256Z,59.79
2018-09-13T12:02:38.165Z,60.02
2018-09-13T12:05:07.113Z,60.51
2018-09-13T12:07:36.061Z,59.52
2018-09-13T12:10:05.148Z,59.01
2018-09-13T12:12:34.144Z,60.21
2018-09-13T12:15:03.062Z,60.83
2018-09-13T12:17:31.963Z,60.69
2018-09-13T12:20:00.863Z,59.83
2018-09-13T12:22:29.796Z,59.89
2018-09-13T12:25:00.291Z,60.17
2018-09-13T12:27:29.335Z,60.47
2018-09-13T12:29:58.378Z,60.47
2018-09-13T12:32:28.655Z,60.55
2018-09-13T12:34:57.563Z,60.67
2018-09-13T12:37:27.115Z,60.06
2018-09-13T12:39:56.082Z,59.44
2018-09-13T12:42:25.095Z,60.53
2018-09-13T12:44:53.973Z,60.83
2018-09-13T12:47:22.878Z,60.38
2018-09-13T12:49:52.644Z,60.15
2018-09-13T12:52:21.594Z,61.11
2018-09-13T12:54:50.461Z,60.04
2018-09-13T12:57:19.378Z,60.28
2018-09-13T12:59:48.242Z,59.77
2018-09-13T13:02:17.178Z,60.37
2018-09-13T13:04:46.132Z,60.13
2018-09-13T13:07:15.055Z,59.61
2018-09-13T13:09:44.098Z,59.74
2018-09-13T13:12:12.974Z,58.77
2018-09-13T13:14:41.946Z,58.13
2018-09-13T13:17:10.895Z,57.38
2018-09-13T13:19:39.806Z,57.51
2018-09-13T13:22:08.674Z,59.36
2018-09-13T13:24:37.554Z,58.55
2018-09-13T13:27:06.512Z,58.65
2018-09-13T13:29:35.356Z,58.67
2018-09-13T13:32:04.266Z,59.24
2018-09-13T13:34:33.218Z,58.81
2018-09-13T13:37:02.118Z,59.09
2018-09-13T13:39:32.058Z,59.45
2018-09-13T13:42:00.994Z,59.00
2018-09-13T13:44:29.907Z,59.09
2018-09-13T13:47:00.718Z,58.61
2018-09-13T13:49:29.575Z,58.15
2018-09-13T13:51:58.442Z,58.71
2018-09-13T13:54:27.418Z,59.41
2018-09-13T13:56:56.289Z,59.32
2018-09-13T13:59:25.109Z,59.69
2018-09-13T14:01:54.068Z,60.36
2018-09-13T14:04:22.981Z,60.19
2018-09-13T14:06:51.811Z,59.99
2018-09-13T14:09:20.863Z,59.90
2018-09-13T14:11:51.190Z,58.52
2018-09-13T14:14:20.111Z,57.95
2018-09-13T14:16:49.746Z,57.65
2018-09-13T14:19:19.116Z,57.59
2018-09-13T14:21:48.099Z,58.01
2018-09-13T14:24:17.036Z,58.43
2018-09-13T14:26:45.969Z,58.09
2018-09-13T14:29:14.927Z,57.29
2018-09-13T14:31:43.874Z,57.50
2018-09-13T14:34:12.721Z,58.25
2018-09-13T14:36:42.895Z,58.73
2018-09-13T14:39:12.375Z,58.67
2018-09-13T14:41:41.383Z,58.75
2018-09-13T14:44:11.600Z,57.88
2018-09-13T14:46:41.503Z,57.07
2018-09-13T14:49:10.464Z,55.90
2018-09-13T14:51:40.935Z,56.59
2018-09-13T14:54:09.887Z,55.74
2018-09-13T14:56:38.840Z,54.95
2018-09-13T14:59:09.282Z,55.64
2018-09-13T15:01:38.203Z,56.43
2018-09-13T15:04:07.049Z,57.13
2018-09-13T15:06:36.039Z,58.00
2018-09-13T15:09:07.582Z,59.12
2018-09-13T15:11:36.442Z,59.14
2018-09-13T15:14:06.919Z,59.25
2018-09-13T15:16:35.867Z,60.18
2018-09-13T15:19:04.738Z,59.82
2018-09-13T15:21:33.751Z,60.01
2018-09-13T15:24:02.601Z,60.09
2018-09-13T15:26:31.474Z,59.98
2018-09-13T15:29:00.461Z,60.35
2018-09-13T15:31:30.549Z,60.70
2018-09-13T15:33:59.418Z,60.81
2018-09-13T15:36:28.354Z,61.57
2018-09-13T15:38:57.258Z,61.27
2018-09-13T15:41:26.097Z,61.07
2018-09-13T15:43:55.123Z,60.95
2018-09-13T15:46:25.189Z,60.81
2018-09-13T15:48:54.084Z,61.40
2018-09-13T15:51:22.970Z,61.26
2018-09-13T15:53:51.868Z,61.15
2018-09-13T15:56:20.809Z,61.18
2018-09-13T15:58:49.782Z,61.73
2018-09-13T16:01:19.885Z,62.08
2018-09-13T16:03:48.832Z,62.01
2018-09-13T16:06:17.670Z,62.81
2018-09-13T16:08:47.901Z,63.10
2018-09-13T16:11:16.833Z,63.57
2018-09-13T16:13:45.742Z,64.80
2018-09-13T16:16:15.998Z,64.52
2018-09-13T16:18:44.846Z,65.47
2018-09-13T16:21:13.795Z,66.03
2018-09-13T16:23:43.362Z,65.72
2018-09-13T16:26:12.313Z,66.25
2018-09-13T16:28:41.251Z,66.83
2018-09-13T16:31:10.132Z,66.86
2018-09-13T16:33:39.064Z,66.98
2018-09-13T16:36:10.854Z,67.33
2018-09-13T16:38:47.886Z,67.37
2018-09-13T16:41:22.006Z,67.83
2018-09-13T16:43:56.076Z,67.88
2018-09-13T16:46:30.172Z,68.26
2018-09-13T16:48:59.149Z,68.50
2018-09-13T16:51:29.063Z,69.28
2018-09-13T16:53:57.988Z,68.99
2018-09-13T16:56:28.935Z,69.59
2018-09-13T16:58:57.907Z,69.75
2018-09-13T17:01:26.790Z,69.42
2018-09-13T17:03:55.771Z,69.98
2018-09-13T17:06:24.826Z,69.89
2018-09-13T17:08:53.659Z,70.37
2018-09-13T17:11:22.552Z,70.86
2018-09-13T17:13:51.518Z,70.64
2018-09-13T17:16:20.361Z,71.05
2018-09-13T17:18:49.286Z,71.60
2018-09-13T17:21:18.110Z,72.17
2018-09-13T17:23:46.929Z,72.35
2018-09-13T17:26:15.841Z,72.04
2018-09-13T17:28:44.807Z,72.63
2018-09-13T17:31:13.781Z,72.41
2018-09-13T17:33:42.774Z,72.57
2018-09-13T17:36:11.709Z,72.73
2018-09-13T17:38:40.538Z,73.83
2018-09-13T17:41:09.463Z,73.30
2018-09-13T17:43:38.374Z,73.94
2018-09-13T17:46:07.231Z,74.71
2018-09-13T17:48:36.098Z,74.82
2018-09-13T17:51:05.021Z,74.53
2018-09-13T17:53:33.929Z,74.72
2018-09-13T17:56:02.759Z,74.34
2018-09-13T17:58:31.696Z,73.56
2018-09-13T18:01:00.580Z,74.37
2018-09-13T18:03:29.556Z,74.24
2018-09-13T18:05:58.489Z,74.32
2018-09-13T18:08:27.332Z,74.47
2018-09-13T18:10:56.200Z,74.46
2018-09-13T18:13:25.205Z,73.99
2018-09-13T18:15:54.020Z,73.84
2018-09-13T18:18:22.846Z,74.39
2018-09-13T18:20:51.747Z,74.70
2018-09-13T18:23:20.562Z,74.62
2018-09-13T18:25:49.409Z,74.84
2018-09-13T18:28:18.321Z,75.21
2018-09-13T18:30:47.188Z,75.00
2018-09-13T18:33:16.094Z,74.44
2018-09-13T18:35:46.383Z,74.36
2018-09-13T18:38:15.224Z,74.18
2018-09-13T18:40:44.323Z,74.83
2018-09-13T18:43:13.153Z,74.88
2018-09-13T18:45:42.084Z,75.15
2018-09-13T18:48:12.266Z,75.63
2018-09-13T18:50:42.467Z,76.35
2018-09-13T18:53:11.354Z,76.47
2018-09-13T18:55:40.414Z,75.50
2018-09-13T18:58:10.616Z,75.70
2018-09-13T19:00:39.580Z,75.03
2018-09-13T19:03:08.499Z,75.36
2018-09-13T19:05:37.412Z,75.25
2018-09-13T19:08:06.655Z,75.75
2018-09-13T19:10:37.031Z,74.58
2018-09-13T19:13:05.977Z,74.89
2018-09-13T19:15:34.837Z,75.85
2018-09-13T19:18:05.294Z,75.98
2018-09-13T19:20:34.297Z,76.45
2018-09-13T19:23:03.130Z,75.72
2018-09-13T19:25:32.146Z,76.07
2018-09-13T19:28:01.135Z,76.29
2018-09-13T19:30:30.156Z,76.49
2018-09-13T19:32:59.426Z,76.33
2018-09-13T19:35:28.470Z,76.24
2018-09-13T19:37:57.443Z,75.83
2018-09-13T19:40:26.476Z,76.31
2018-09-13T19:43:00.515Z,76.63
2018-09-13T19:45:29.501Z,76.93
2018-09-13T19:47:58.473Z,76.65
2018-09-13T19:50:28.893Z,76.76
2018-09-13T19:52:57.909Z,77.18
2018-09-13T19:55:27.089Z,77.32
2018-09-13T19:57:57.342Z,76.91
2018-09-13T20:00:26.474Z,77.10
2018-09-13T20:02:55.796Z,77.47
2018-09-13T20:05:24.779Z,78.25
2018-09-13T20:07:53.666Z,78.28
2018-09-13T20:10:22.507Z,78.63
2018-09-13T20:12:52.742Z,78.64
2018-09-13T20:15:21.620Z,78.03
2018-09-13T20:17:50.472Z,78.36
2018-09-13T20:20:20.664Z,77.71
2018-09-13T20:22:49.571Z,77.45
2018-09-13T20:25:18.661Z,77.80
2018-09-13T20:27:47.535Z,76.96
2018-09-13T20:30:16.381Z,76.55
2018-09-13T20:32:45.240Z,76.39
2018-09-13T20:35:14.105Z,77.11
2018-09-13T20:37:42.919Z,76.62
2018-09-13T20:40:11.734Z,76.49
2018-09-13T20:42:40.675Z,76.93
2018-09-13T20:45:09.516Z,77.11
2018-09-13T20:47:38.375Z,77.12
2018-09-13T20:50:07.537Z,77.36
2018-09-13T20:52:36.604Z,77.49
2018-09-13T20:55:05.445Z,77.39
2018-09-13T20:57:35.687Z,77.50
2018-09-13T21:00:04.599Z,77.11
2018-09-13T21:02:33.458Z,77.08
2018-09-13T21:05:02.337Z,76.81
2018-09-13T21:07:31.190Z,76.39
2018-09-13T21:10:00.048Z,76.61
2018-09-13T21:12:28.902Z,76.82
2018-09-13T21:14:57.737Z,77.30
2018-09-13T21:17:26.572Z,77.92
2018-09-13T21:19:55.459Z,78.02
2018-09-13T21:22:24.278Z,78.34
2018-09-13T21:24:53.110Z,78.65
2018-09-13T21:27:22.003Z,79.34
2018-09-13T21:29:51.056Z,79.89
2018-09-13T21:32:19.946Z,79.62
2018-09-13T21:34:48.796Z,79.86
2018-09-13T21:37:17.685Z,79.99
2018-09-13T21:39:47.939Z,80.26
2018-09-13T21:42:16.820Z,80.23
2018-09-13T21:44:45.775Z,80.02
2018-09-13T21:47:14.668Z,80.09
2018-09-13T21:49:43.533Z,80.27
2018-09-13T21:52:12.391Z,80.05
2018-09-13T21:54:41.307Z,80.67
2018-09-13T21:57:10.113Z,80.31
2018-09-13T21:59:38.962Z,80.23
2018-09-13T22:02:07.980Z,80.68
2018-09-13T22:04:36.802Z,80.88
2018-09-13T22:07:05.612Z,80.60
2018-09-13T22:09:34.521Z,80.79
2018-09-13T22:12:04.355Z,81.03
2018-09-13T22:14:33.211Z,81.60
2018-09-13T22:17:02.139Z,80.81
2018-09-13T22:19:30.947Z,81.69
2018-09-13T22:21:59.753Z,81.67
2018-09-13T22:24:28.594Z,81.45
2018-09-13T22:26:57.437Z,81.52
2018-09-13T22:29:26.258Z,81.07
2018-09-13T22:31:55.155Z,81.91
2018-09-13T22:34:23.962Z,81.08
2018-09-13T22:36:52.792Z,81.56
2018-09-13T22:39:21.642Z,81.18
2018-09-13T22:41:50.477Z,80.56
2018-09-13T22:44:19.332Z,80.78
2018-09-13T22:46:49.411Z,80.37
2018-09-13T22:49:20.651Z,80.62
2018-09-13T22:51:49.526Z,80.33
2018-09-13T22:54:18.345Z,80.44
2018-09-13T22:56:47.148Z,80.61
2018-09-13T22:59:16.062Z,80.79
2018-09-13T23:01:44.861Z,80.86
2018-09-13T23:04:13.683Z,80.62
2018-09-13T23:06:42.538Z,80.96
2018-09-13T23:09:12.374Z,80.10
2018-09-13T23:11:41.484Z,80.29
2018-09-13T23:14:11.563Z,80.08
2018-09-13T23:16:40.391Z,80.18
2018-09-13T23:19:09.223Z,79.40
2018-09-13T23:21:38.111Z,79.90
2018-09-13T23:24:06.957Z,80.06
2018-09-13T23:26:35.791Z,79.77
2018-09-13T23:29:04.720Z,80.01
2018-09-13T23:31:33.526Z,80.40
2018-09-13T23:34:02.351Z,79.91
2018-09-13T23:36:32.682Z,80.09
2018-09-13T23:39:01.577Z,79.58
2018-09-13T23:41:30.418Z,80.02
2018-09-13T23:43:59.458Z,79.70
2018-09-13T23:46:28.347Z,79.95
2018-09-13T23:48:57.185Z,79.86
2018-09-13T23:51:26.064Z,80.24
2018-09-13T23:53:54.876Z,79.81
2018-09-13T23:56:23.695Z,80.36
2018-09-13T23:58:52.586Z,79.91
